Time;durP1;ratioP1;P1;durP2;ratioP2;P2;SDS_P1;SDS_P2;PMS_P1;PMS_P2;Temp;Humidity;BMP_temperature;BMP_pressure;BME280_temperature;BME280_humidity;BME280_pressure;Samples;Min_cycle;Max_cycle;Signal;HPM_P1;HPM_P2
2022/07/21 00:02:10;;;;;;;9.93;5.50;;;26.00;58.60;;;;;;6146074;28;80601;-62
2022/07/21 00:05:11;;;;;;;10.68;5.60;;;26.00;58.70;;;;;;6148882;28;80719;-62
2022/07/21 00:08:13;;;;;;;8.25;4.93;;;26.00;58.60;;;;;;6145259;28;80732;-62
2022/07/21 00:11:13;;;;;;;9.27;5.68;;;26.10;58.60;;;;;;6133308;28;82212;-61
2022/07/21 00:14:14;;;;;;;9.82;5.40;;;26.10;58.60;;;;;;6135208;28;80344;-62
2022/07/21 00:17:14;;;;;;;7.85;5.30;;;26.10;58.50;;;;;;6141430;28;80564;-62
2022/07/21 00:20:15;;;;;;;7.60;5.55;;;26.10;58.60;;;;;;6135464;28;80489;-62
2022/07/21 00:23:15;;;;;;;10.18;6.35;;;26.10;58.80;;;;;;6134663;28;81504;-62
2022/07/21 00:26:16;;;;;;;6.55;4.78;;;26.10;58.80;;;;;;6134783;28;80297;-62
2022/07/21 00:29:16;;;;;;;11.68;6.40;;;26.00;58.80;;;;;;6140879;28;80345;-62
2022/07/21 00:32:17;;;;;;;11.50;6.30;;;26.00;59.00;;;;;;6134772;28;81110;-62
2022/07/21 00:35:17;;;;;;;12.15;6.60;;;26.00;59.00;;;;;;6134735;28;87701;-62
2022/07/21 00:38:18;;;;;;;10.07;5.55;;;25.90;59.20;;;;;;6135057;28;81488;-61
2022/07/21 00:41:18;;;;;;;11.27;6.15;;;25.90;59.30;;;;;;6147051;28;80407;-62
2022/07/21 00:44:19;;;;;;;10.68;6.30;;;25.90;59.20;;;;;;6142742;28;80994;-62
2022/07/21 00:47:19;;;;;;;8.13;5.53;;;25.90;59.30;;;;;;6139852;28;80840;-61
2022/07/21 00:50:20;;;;;;;10.80;6.10;;;25.80;59.40;;;;;;6134355;28;80486;-61
2022/07/21 00:53:20;;;;;;;11.98;4.97;;;25.70;59.50;;;;;;6134589;28;81205;-61
2022/07/21 00:56:21;;;;;;;12.55;6.07;;;25.60;59.70;;;;;;6137021;28;80231;-62
2022/07/21 00:59:21;;;;;;;12.10;5.43;;;25.50;59.80;;;;;;6134564;28;80832;-61
2022/07/21 01:02:21;;;;;;;10.93;6.10;;;25.50;59.80;;;;;;6134607;28;80506;-61
2022/07/21 01:05:22;;;;;;;10.60;5.32;;;25.60;59.70;;;;;;6134350;28;80384;-61
2022/07/21 01:08:22;;;;;;;8.77;5.50;;;25.60;59.60;;;;;;6137137;28;80851;-61
2022/07/21 01:11:23;;;;;;;10.88;6.47;;;25.60;59.60;;;;;;6138460;28;80418;-61
2022/07/21 01:14:23;;;;;;;12.70;6.13;;;25.60;59.50;;;;;;6138841;28;80030;-61
2022/07/21 01:17:24;;;;;;;12.07;6.72;;;25.60;59.40;;;;;;6138672;28;80791;-61
2022/07/21 01:20:24;;;;;;;15.25;7.15;;;25.60;59.30;;;;;;6137516;28;80573;-62
2022/07/21 01:23:25;;;;;;;16.25;6.45;;;25.60;59.20;;;;;;6138582;28;80445;-62
2022/07/21 01:26:25;;;;;;;14.05;6.78;;;25.60;59.50;;;;;;6138154;28;81512;-62
2022/07/21 01:29:26;;;;;;;11.73;6.15;;;25.60;59.40;;;;;;6151994;28;81856;-62
2022/07/21 01:32:26;;;;;;;10.75;6.15;;;25.50;59.30;;;;;;6138224;28;80396;-62
2022/07/21 01:35:27;;;;;;;13.27;6.03;;;25.50;59.30;;;;;;6137686;28;80732;-62
2022/07/21 01:41:47;;;;;;;12.20;6.78;;;25.60;59.20;;;;;;6135888;28;80635;-62
2022/07/21 01:44:47;;;;;;;19.00;6.15;;;25.60;59.20;;;;;;6145057;28;80683;-62
2022/07/21 01:47:48;;;;;;;9.95;5.80;;;25.60;59.10;;;;;;6149948;28;81943;-62
2022/07/21 01:50:48;;;;;;;13.98;6.57;;;25.60;59.30;;;;;;6137782;28;80654;-62
2022/07/21 01:53:49;;;;;;;9.70;5.88;;;25.70;59.20;;;;;;6151270;28;80667;-61
2022/07/21 01:56:49;;;;;;;12.85;5.93;;;25.70;59.00;;;;;;6146231;28;81391;-62
2022/07/21 01:59:49;;;;;;;12.38;6.05;;;25.70;59.00;;;;;;6137627;28;80978;-62
2022/07/21 02:02:50;;;;;;;11.50;5.60;;;25.70;59.10;;;;;;6145203;28;80379;-62
2022/07/21 02:05:51;;;;;;;8.15;6.10;;;25.70;59.20;;;;;;6137083;28;80446;-62
2022/07/21 02:08:51;;;;;;;11.23;7.13;;;25.60;59.10;;;;;;6135757;28;81627;-63
2022/07/21 02:11:51;;;;;;;11.65;6.18;;;25.60;58.90;;;;;;6142157;28;80327;-62
2022/07/21 02:14:52;;;;;;;10.63;6.30;;;25.70;59.00;;;;;;6136912;28;80702;-62
2022/07/21 02:17:52;;;;;;;11.98;6.28;;;25.70;58.90;;;;;;6135679;28;81857;-61
2022/07/21 02:20:54;;;;;;;12.15;6.25;;;25.60;58.80;;;;;;6145484;28;80798;-61
2022/07/21 02:23:54;;;;;;;10.23;6.10;;;25.50;59.00;;;;;;6142126;28;85455;-63
2022/07/21 02:26:55;;;;;;;10.45;5.85;;;25.50;59.10;;;;;;6119467;28;82618;-63
2022/07/21 02:29:55;;;;;;;8.57;6.10;;;25.40;59.20;;;;;;6136736;28;81563;-63
2022/07/21 02:32:56;;;;;;;13.48;5.78;;;25.40;59.30;;;;;;6137038;28;80412;-62
2022/07/21 02:35:56;;;;;;;14.10;6.47;;;25.40;59.20;;;;;;6136570;28;80439;-62
2022/07/21 02:38:57;;;;;;;11.50;6.43;;;25.40;59.20;;;;;;6136654;28;80734;-62
2022/07/21 02:41:57;;;;;;;12.48;7.05;;;25.40;59.50;;;;;;6136187;28;80703;-63
2022/07/21 02:44:58;;;;;;;8.20;5.85;;;25.50;59.50;;;;;;6136391;28;80430;-62
2022/07/21 02:47:58;;;;;;;9.27;6.00;;;25.50;59.30;;;;;;6137275;28;80792;-63
2022/07/21 02:50:58;;;;;;;13.32;7.32;;;25.50;59.40;;;;;;6136909;28;80271;-63
2022/07/21 02:53:59;;;;;;;11.55;6.80;;;25.50;59.30;;;;;;6136787;28;80634;-63
2022/07/21 02:56:59;;;;;;;9.80;6.00;;;25.50;59.40;;;;;;6138503;28;80788;-62
2022/07/21 03:00:00;;;;;;;14.77;6.95;;;25.50;59.40;;;;;;6143912;28;80327;-62
2022/07/21 03:03:00;;;;;;;11.63;6.95;;;25.50;59.50;;;;;;6138720;28;81530;-63
2022/07/21 03:06:01;;;;;;;9.95;6.20;;;25.50;59.90;;;;;;6137351;28;80339;-63
2022/07/21 03:09:01;;;;;;;16.52;6.72;;;25.60;59.40;;;;;;6136176;28;80382;-63
2022/07/21 03:12:02;;;;;;;12.93;6.25;;;25.60;59.40;;;;;;6136180;28;80462;-62
2022/07/21 03:15:02;;;;;;;14.45;6.35;;;25.60;59.30;;;;;;6136396;28;80334;-62
2022/07/21 03:18:03;;;;;;;13.75;6.47;;;25.60;59.20;;;;;;6135721;28;80234;-62
2022/07/21 03:21:03;;;;;;;18.40;7.20;;;25.70;59.20;;;;;;6141309;28;80743;-63
2022/07/21 03:24:04;;;;;;;11.75;6.72;;;25.70;59.30;;;;;;6151234;28;80539;-65
2022/07/21 03:27:04;;;;;;;15.80;7.05;;;25.70;59.40;;;;;;6149962;28;80563;-64
2022/07/21 03:30:05;;;;;;;10.13;6.22;;;25.70;59.20;;;;;;6144749;28;80728;-64
2022/07/21 03:33:05;;;;;;;12.80;7.47;;;25.70;59.00;;;;;;6145722;28;80239;-72
2022/07/21 03:36:07;;;;;;;12.02;6.90;;;25.70;59.40;;;;;;6149275;28;80475;-73
2022/07/21 03:39:07;;;;;;;14.85;7.32;;;25.70;59.10;;;;;;6148406;28;81676;-72
2022/07/21 03:42:08;;;;;;;12.70;7.20;;;25.70;59.00;;;;;;6142109;28;82263;-62
2022/07/21 03:45:08;;;;;;;13.15;6.57;;;25.70;59.10;;;;;;6145856;28;81773;-64
2022/07/21 03:48:09;;;;;;;11.70;6.80;;;25.70;59.10;;;;;;6135160;28;81381;-63
2022/07/21 03:51:09;;;;;;;12.55;7.13;;;25.70;59.20;;;;;;6136512;28;80701;-62
2022/07/21 03:54:10;;;;;;;16.05;7.57;;;25.70;59.20;;;;;;6142045;28;81029;-69
2022/07/21 03:57:10;;;;;;;10.27;7.25;;;25.70;59.40;;;;;;6133069;28;80383;-63
2022/07/21 04:00:11;;;;;;;21.85;7.60;;;25.70;59.70;;;;;;6134297;28;80335;-63
2022/07/21 04:03:14;;;;;;;12.73;6.75;;;25.70;59.80;;;;;;6141893;28;80700;-63
2022/07/21 04:06:14;;;;;;;14.25;7.78;;;25.70;59.50;;;;;;6138251;28;80660;-63
2022/07/21 04:09:17;;;;;;;14.15;6.97;;;25.70;59.80;;;;;;6142192;28;81208;-63
2022/07/21 04:12:17;;;;;;;12.70;7.22;;;25.70;59.80;;;;;;6137491;28;82109;-62
2022/07/21 04:15:18;;;;;;;14.57;7.60;;;25.70;59.70;;;;;;6132465;28;80686;-62
2022/07/21 04:18:18;;;;;;;15.23;7.10;;;25.70;59.50;;;;;;6131522;28;80407;-63
2022/07/21 04:21:19;;;;;;;15.85;7.40;;;25.70;59.70;;;;;;6133533;28;80465;-63
2022/07/21 04:24:19;;;;;;;12.18;6.57;;;25.70;59.60;;;;;;6134478;28;80368;-63
2022/07/21 04:27:20;;;;;;;13.25;6.90;;;25.70;59.60;;;;;;6134456;28;81007;-64
2022/07/21 04:30:20;;;;;;;12.55;6.95;;;25.70;59.60;;;;;;6134393;28;80261;-64
2022/07/21 04:33:21;;;;;;;14.65;7.50;;;25.70;59.70;;;;;;6134453;28;80494;-70
2022/07/21 04:36:21;;;;;;;13.18;6.63;;;25.70;59.80;;;;;;6134756;28;80401;-72
2022/07/21 04:39:22;;;;;;;15.10;6.75;;;25.70;59.80;;;;;;6134417;28;80396;-70
2022/07/21 04:42:22;;;;;;;14.70;7.70;;;25.80;59.80;;;;;;6135639;28;80399;-72
2022/07/21 04:45:23;;;;;;;15.25;7.18;;;25.80;59.90;;;;;;6136968;28;81651;-75
2022/07/21 04:48:23;;;;;;;14.38;7.60;;;25.80;59.70;;;;;;6143270;28;80299;-63
2022/07/21 04:51:24;;;;;;;11.35;7.30;;;25.80;59.80;;;;;;6137590;28;80543;-74
2022/07/21 04:54:24;;;;;;;12.25;6.93;;;25.80;59.80;;;;;;6139154;28;81057;-75
2022/07/21 04:57:25;;;;;;;11.13;7.10;;;25.80;59.70;;;;;;6139415;28;80628;-75
2022/07/21 05:00:25;;;;;;;16.30;7.20;;;25.90;59.80;;;;;;6138769;28;80363;-70
2022/07/21 05:03:26;;;;;;;11.60;6.85;;;25.90;59.60;;;;;;6133257;28;80549;-68
2022/07/21 05:06:26;;;;;;;10.95;6.82;;;25.90;59.70;;;;;;6142009;28;81496;-63
2022/07/21 05:09:27;;;;;;;11.98;6.95;;;25.90;59.60;;;;;;6145443;28;81748;-63
2022/07/21 05:12:27;;;;;;;11.80;7.50;;;25.80;59.50;;;;;;6138826;28;81325;-63
2022/07/21 05:15:28;;;;;;;11.98;6.88;;;25.90;59.60;;;;;;6137333;28;80897;-63
2022/07/21 05:18:28;;;;;;;17.75;7.30;;;25.90;59.60;;;;;;6137279;28;80498;-63
2022/07/21 05:21:29;;;;;;;13.50;7.45;;;25.90;59.70;;;;;;6134344;28;80510;-63
2022/07/21 05:24:29;;;;;;;17.20;7.55;;;25.80;59.80;;;;;;6137088;28;80891;-63
2022/07/21 05:27:30;;;;;;;13.20;7.28;;;25.80;60.10;;;;;;6135265;28;81237;-63
2022/07/21 05:30:30;;;;;;;10.40;7.05;;;25.70;60.50;;;;;;6138305;28;80405;-62
2022/07/21 05:33:31;;;;;;;11.23;6.97;;;25.60;60.90;;;;;;6137416;28;80848;-63
2022/07/21 05:36:31;;;;;;;19.77;8.23;;;25.40;61.10;;;;;;6137903;28;81706;-63
2022/07/21 05:39:32;;;;;;;13.07;7.43;;;25.30;61.50;;;;;;6136562;28;80628;-63
2022/07/21 05:42:32;;;;;;;20.85;8.23;;;25.40;62.60;;;;;;6138047;28;80773;-63
2022/07/21 05:45:33;;;;;;;13.95;8.13;;;25.30;62.10;;;;;;6137915;28;80364;-62
2022/07/21 05:48:33;;;;;;;11.13;7.82;;;25.30;62.20;;;;;;6136299;28;80343;-63
2022/07/21 05:51:34;;;;;;;12.85;7.18;;;25.10;62.30;;;;;;6137681;28;80458;-62
2022/07/21 05:54:34;;;;;;;13.30;7.22;;;25.20;62.50;;;;;;6134476;28;80926;-63
2022/07/21 05:57:35;;;;;;;19.63;7.85;;;25.30;62.80;;;;;;6138305;28;80528;-63
2022/07/21 06:00:35;;;;;;;10.93;7.75;;;25.30;62.90;;;;;;6122864;28;80285;-63
2022/07/21 06:03:36;;;;;;;12.90;8.32;;;25.30;63.00;;;;;;6114861;28;80597;-63
2022/07/21 06:06:36;;;;;;;14.02;8.20;;;25.30;63.10;;;;;;6119655;28;80459;-62
2022/07/21 06:09:37;;;;;;;19.20;8.90;;;25.40;62.80;;;;;;6116312;28;81335;-62
2022/07/21 06:12:37;;;;;;;13.90;8.68;;;25.40;62.80;;;;;;6119933;28;81093;-62
2022/07/21 06:15:38;;;;;;;14.25;8.20;;;25.40;62.80;;;;;;6125164;28;80614;-62
2022/07/21 06:18:38;;;;;;;14.15;8.27;;;25.40;62.60;;;;;;6133322;28;80446;-62
2022/07/21 06:21:40;;;;;;;13.80;8.35;;;25.40;62.60;;;;;;6135723;28;80623;-62
2022/07/21 06:24:41;;;;;;;17.17;7.70;;;25.40;62.50;;;;;;6136006;28;80936;-62
2022/07/21 06:27:41;;;;;;;19.08;9.30;;;25.40;62.50;;;;;;6136092;28;80525;-62
2022/07/21 06:30:42;;;;;;;14.85;8.32;;;25.40;62.60;;;;;;6136390;28;80859;-63
2022/07/21 06:33:42;;;;;;;18.52;8.88;;;25.30;62.50;;;;;;6135401;28;80389;-65
2022/07/21 06:36:43;;;;;;;14.68;8.00;;;25.30;62.60;;;;;;6130127;28;80993;-63
2022/07/21 06:39:43;;;;;;;16.75;8.45;;;25.40;62.50;;;;;;6129493;28;81257;-63
2022/07/21 06:42:44;;;;;;;16.40;8.15;;;25.30;62.80;;;;;;6134121;28;82545;-63
2022/07/21 06:45:44;;;;;;;17.85;7.90;;;25.40;62.90;;;;;;6137088;28;81183;-62
2022/07/21 06:48:45;;;;;;;16.67;8.50;;;25.50;63.00;;;;;;6130449;28;80548;-62
2022/07/21 06:51:45;;;;;;;12.30;7.10;;;25.50;62.70;;;;;;6134805;28;81275;-62
2022/07/21 06:54:46;;;;;;;14.43;8.10;;;25.60;62.70;;;;;;6129591;28;81191;-62
2022/07/21 06:57:46;;;;;;;15.02;8.30;;;25.50;62.60;;;;;;6128246;28;80497;-62
2022/07/21 07:00:47;;;;;;;13.65;8.05;;;25.60;62.50;;;;;;6128496;28;81038;-62
2022/07/21 07:03:48;;;;;;;15.00;8.27;;;25.60;62.20;;;;;;6132478;28;81454;-62
2022/07/21 07:06:51;;;;;;;13.07;8.10;;;25.60;62.20;;;;;;6123589;28;80865;-61
2022/07/21 07:09:52;;;;;;;15.70;8.82;;;25.70;62.20;;;;;;6128629;28;80644;-62
2022/07/21 07:12:52;;;;;;;11.18;7.38;;;25.60;62.40;;;;;;6136450;28;80451;-63
2022/07/21 07:15:53;;;;;;;21.52;9.57;;;25.70;62.40;;;;;;6132541;28;81072;-62
2022/07/21 07:18:53;;;;;;;17.08;8.40;;;25.70;62.30;;;;;;6135719;28;80776;-63
2022/07/21 07:21:54;;;;;;;14.75;8.75;;;25.60;62.30;;;;;;6127128;28;80008;-64
2022/07/21 07:24:54;;;;;;;15.75;8.70;;;25.70;62.20;;;;;;6129429;28;80931;-66
2022/07/21 07:27:56;;;;;;;13.02;8.15;;;25.70;62.20;;;;;;6136338;28;80461;-64
2022/07/21 07:30:57;;;;;;;19.75;8.80;;;25.70;62.20;;;;;;6135889;28;81347;-64
2022/07/21 07:33:57;;;;;;;18.27;8.32;;;25.80;62.50;;;;;;6135878;28;80597;-64
2022/07/21 07:36:58;;;;;;;17.58;8.40;;;25.80;62.30;;;;;;6126038;28;80655;-65
2022/07/21 07:39:59;;;;;;;20.55;8.52;;;25.80;63.10;;;;;;6135439;28;81141;-65
2022/07/21 07:42:59;;;;;;;15.02;7.28;;;25.90;62.40;;;;;;6133119;28;80469;-64
2022/07/21 07:46:01;;;;;;;12.23;7.40;;;25.80;62.40;;;;;;6130499;28;81428;-64
2022/07/21 07:49:02;;;;;;;15.15;8.07;;;25.90;62.60;;;;;;6134207;28;80487;-64
2022/07/21 07:52:02;;;;;;;19.20;8.45;;;25.90;62.50;;;;;;6129104;28;81634;-63
2022/07/21 07:55:06;;;;;;;13.93;7.68;;;25.90;62.50;;;;;;6128210;28;80695;-64
2022/07/21 07:58:07;;;;;;;17.35;7.80;;;25.90;62.50;;;;;;6131271;28;81752;-64
2022/07/21 08:01:07;;;;;;;9.82;7.05;;;25.90;62.50;;;;;;6130643;28;80336;-70
2022/07/21 08:04:08;;;;;;;13.60;7.78;;;26.00;62.60;;;;;;6133902;28;80497;-70
2022/07/21 08:07:08;;;;;;;16.75;7.00;;;26.00;62.50;;;;;;6131138;28;81447;-63
2022/07/21 08:10:09;;;;;;;13.63;7.80;;;26.10;62.50;;;;;;6133821;28;80380;-64
2022/07/21 08:13:09;;;;;;;16.73;7.72;;;26.10;62.30;;;;;;6129952;28;80763;-64
2022/07/21 08:16:11;;;;;;;16.77;7.47;;;26.10;62.10;;;;;;6126183;28;80590;-64
2022/07/21 08:19:12;;;;;;;18.80;7.65;;;26.10;61.90;;;;;;6134697;28;80109;-64
2022/07/21 08:22:13;;;;;;;14.40;7.95;;;26.10;61.90;;;;;;6133774;28;80349;-66
2022/07/21 08:25:13;;;;;;;24.98;7.65;;;26.10;61.90;;;;;;6128474;28;80411;-65
2022/07/21 08:28:14;;;;;;;14.75;7.20;;;26.10;61.80;;;;;;6134460;28;80359;-73
2022/07/21 08:31:14;;;;;;;15.15;6.93;;;26.10;61.70;;;;;;6135646;28;80894;-71
2022/07/21 08:34:14;;;;;;;17.60;7.78;;;26.10;61.70;;;;;;6130735;28;81268;-70
2022/07/21 08:37:15;;;;;;;15.27;6.85;;;26.20;61.70;;;;;;6118893;28;80503;-62
2022/07/21 08:40:16;;;;;;;17.80;7.90;;;26.20;61.40;;;;;;6132971;28;80255;-64
2022/07/21 08:43:16;;;;;;;15.27;7.18;;;26.20;60.90;;;;;;6131372;28;80419;-62
2022/07/21 08:46:17;;;;;;;15.63;7.10;;;26.20;60.90;;;;;;6135069;28;80903;-63
2022/07/21 08:49:17;;;;;;;13.57;6.85;;;26.20;60.90;;;;;;6134427;28;80887;-66
2022/07/21 08:52:18;;;;;;;11.13;6.38;;;26.30;61.20;;;;;;6132749;28;80427;-64
2022/07/21 08:55:18;;;;;;;57.80;8.75;;;26.30;61.20;;;;;;6134886;28;80496;-64
2022/07/21 08:58:19;;;;;;;16.00;6.88;;;26.30;61.20;;;;;;6135076;28;80439;-64
2022/07/21 09:01:20;;;;;;;17.73;6.70;;;26.30;61.10;;;;;;6132877;28;80610;-63
2022/07/21 09:04:20;;;;;;;10.57;7.03;;;26.40;61.00;;;;;;6132233;28;80555;-63
2022/07/21 09:07:22;;;;;;;12.50;6.22;;;26.40;61.20;;;;;;6130230;28;81001;-63
2022/07/21 09:10:23;;;;;;;8.23;5.82;;;26.50;61.10;;;;;;6132434;28;80646;-63
2022/07/21 09:13:23;;;;;;;11.55;5.70;;;26.50;61.00;;;;;;6132182;28;81212;-63
2022/07/21 09:16:24;;;;;;;9.80;6.13;;;26.50;61.00;;;;;;6133442;28;80425;-66
2022/07/21 09:19:24;;;;;;;11.65;6.57;;;26.50;61.10;;;;;;6132848;28;80635;-66
2022/07/21 09:22:27;;;;;;;9.48;6.60;;;26.60;61.30;;;;;;6133721;28;80793;-66
2022/07/21 09:25:27;;;;;;;9.00;6.53;;;26.60;61.20;;;;;;6133765;28;80184;-67
2022/07/21 09:28:28;;;;;;;10.77;5.78;;;26.60;61.00;;;;;;6135817;28;80066;-64
2022/07/21 09:31:28;;;;;;;11.20;6.55;;;26.60;60.90;;;;;;6134834;28;81744;-67
2022/07/21 09:34:29;;;;;;;7.72;5.38;;;26.60;60.50;;;;;;6137953;28;81380;-64
2022/07/21 09:37:29;;;;;;;8.07;6.28;;;26.70;60.60;;;;;;6137972;28;80908;-65
2022/07/21 09:40:30;;;;;;;10.95;6.25;;;26.80;61.60;;;;;;6135817;28;80726;-66
2022/07/21 09:43:30;;;;;;;7.55;5.68;;;26.70;60.40;;;;;;6136423;28;81433;-65
2022/07/21 09:46:31;;;;;;;8.98;5.80;;;26.80;60.50;;;;;;6127897;28;81346;-64
2022/07/21 09:49:32;;;;;;;9.07;6.10;;;26.90;60.20;;;;;;6145169;28;80454;-66
2022/07/21 09:52:32;;;;;;;15.15;6.78;;;26.90;59.80;;;;;;6135589;28;81017;-65
2022/07/21 09:55:33;;;;;;;16.23;6.00;;;26.80;59.00;;;;;;6134362;28;80380;-64
2022/07/21 09:58:33;;;;;;;9.63;6.15;;;26.80;58.90;;;;;;6131810;28;81592;-64
2022/07/21 10:01:35;;;;;;;11.82;4.78;;;26.80;58.10;;;;;;6145951;28;80334;-64
2022/07/21 10:04:36;;;;;;;8.57;5.10;;;26.80;57.90;;;;;;6136375;28;81245;-64
2022/07/21 10:07:36;;;;;;;16.25;5.63;;;26.70;57.50;;;;;;6137046;28;81547;-65
2022/07/21 10:10:37;;;;;;;9.63;5.60;;;26.70;56.60;;;;;;6137286;28;80176;-65
2022/07/21 10:13:37;;;;;;;7.40;5.30;;;26.70;56.30;;;;;;6133186;28;80523;-64
2022/07/21 10:16:38;;;;;;;9.82;5.00;;;26.70;55.90;;;;;;6136843;28;81819;-64
2022/07/21 10:19:38;;;;;;;11.95;5.72;;;26.70;56.00;;;;;;6135725;28;80799;-64
2022/07/21 10:22:39;;;;;;;7.45;5.35;;;26.70;56.20;;;;;;6136574;28;80659;-64
2022/07/21 10:25:39;;;;;;;5.93;4.15;;;26.70;56.40;;;;;;6139363;28;80601;-65
2022/07/21 10:28:40;;;;;;;9.88;4.97;;;26.70;56.40;;;;;;6137508;28;80419;-65
2022/07/21 10:31:40;;;;;;;6.82;4.63;;;26.70;56.30;;;;;;6136618;28;80503;-65
2022/07/21 10:34:42;;;;;;;8.98;5.15;;;26.70;56.60;;;;;;6134768;28;80977;-65
2022/07/21 10:37:43;;;;;;;8.18;4.63;;;26.70;56.70;;;;;;6135591;28;80335;-65
2022/07/21 10:40:43;;;;;;;6.82;5.40;;;26.70;56.70;;;;;;6125241;28;80212;-65
2022/07/21 10:43:44;;;;;;;9.55;5.00;;;26.80;56.60;;;;;;6136878;28;80361;-65
2022/07/21 10:46:45;;;;;;;16.25;5.28;;;26.80;56.50;;;;;;6136602;28;80711;-66
2022/07/21 10:49:45;;;;;;;7.20;4.22;;;26.80;56.50;;;;;;6136594;28;80338;-65
2022/07/21 10:52:49;;;;;;;7.72;5.03;;;26.80;56.60;;;;;;6133221;28;81591;-65
2022/07/21 10:55:49;;;;;;;7.40;5.18;;;26.80;56.50;;;;;;6123795;28;80420;-66
2022/07/21 10:58:50;;;;;;;9.13;4.97;;;26.80;56.40;;;;;;6133728;28;80425;-65
2022/07/21 11:01:50;;;;;;;6.13;4.40;;;26.80;56.50;;;;;;6139746;28;81647;-65
2022/07/21 11:04:51;;;;;;;11.80;5.40;;;26.80;56.40;;;;;;6136465;28;80263;-66
2022/07/21 11:07:51;;;;;;;7.45;4.95;;;26.90;56.60;;;;;;6137325;28;81094;-65
2022/07/21 11:10:52;;;;;;;6.40;4.50;;;26.90;56.60;;;;;;6137025;28;80696;-65
2022/07/21 11:13:52;;;;;;;4.63;3.90;;;26.90;56.10;;;;;;6136506;28;80394;-65
2022/07/21 11:16:54;;;;;;;10.68;4.82;;;26.90;55.60;;;;;;6136373;28;81810;-65
2022/07/21 11:19:54;;;;;;;5.22;3.88;;;26.80;55.10;;;;;;6135643;28;81827;-64
2022/07/21 11:23:02;;;;;;;7.30;4.00;;;26.90;55.20;;;;;;6131918;28;80462;-65
2022/07/21 11:26:03;;;;;;;10.40;4.60;;;26.90;55.20;;;;;;6136315;28;81136;-70
2022/07/21 11:29:03;;;;;;;5.65;4.00;;;26.90;55.20;;;;;;6134344;28;80448;-71
2022/07/21 11:32:04;;;;;;;7.63;4.68;;;26.90;55.30;;;;;;6135537;28;80893;-77
2022/07/21 11:35:04;;;;;;;12.70;4.50;;;26.90;55.30;;;;;;6136986;28;80719;-78
2022/07/21 11:38:05;;;;;;;10.00;4.80;;;26.90;55.20;;;;;;6131623;28;82540;-68
2022/07/21 11:41:05;;;;;;;12.00;5.18;;;26.90;54.80;;;;;;6129203;28;81787;-64
2022/07/21 11:44:06;;;;;;;11.57;5.45;;;27.00;55.00;;;;;;6131582;28;80921;-65
2022/07/21 11:47:06;;;;;;;7.50;4.53;;;27.00;54.90;;;;;;6132233;28;83484;-64
2022/07/21 11:50:07;;;;;;;12.02;4.95;;;27.00;54.80;;;;;;6126896;28;80462;-64
2022/07/21 11:53:07;;;;;;;9.82;5.65;;;27.00;54.90;;;;;;6124796;28;80539;-64
2022/07/21 11:56:08;;;;;;;6.93;4.32;;;27.10;55.10;;;;;;6139657;28;80898;-64
2022/07/21 11:59:08;;;;;;;9.85;4.88;;;27.10;55.60;;;;;;6135998;28;80261;-64
2022/07/21 12:02:09;;;;;;;29.90;26.55;;;27.20;55.40;;;;;;6133920;28;81702;-63
2022/07/21 12:05:09;;;;;;;24.80;16.98;;;27.20;55.40;;;;;;6132703;28;83593;-63
2022/07/21 12:08:10;;;;;;;14.23;9.25;;;27.30;54.70;;;;;;6126318;28;83126;-63
2022/07/21 12:11:12;;;;;;;9.95;7.55;;;27.20;54.20;;;;;;6129930;28;83419;-63
2022/07/21 12:14:12;;;;;;;12.07;6.47;;;27.20;54.00;;;;;;6134432;28;80325;-64
2022/07/21 12:17:13;;;;;;;8.20;5.13;;;27.30;54.00;;;;;;6133719;28;80764;-64
2022/07/21 12:20:13;;;;;;;6.07;4.22;;;27.30;54.80;;;;;;6128010;28;80242;-63
2022/07/21 12:23:14;;;;;;;9.18;4.50;;;27.30;54.00;;;;;;6135181;28;80876;-66
2022/07/21 12:26:14;;;;;;;8.65;4.55;;;27.40;54.40;;;;;;6129373;28;81556;-63
2022/07/21 12:29:14;;;;;;;6.78;4.38;;;27.60;54.40;;;;;;6134986;28;80117;-63
2022/07/21 12:32:15;;;;;;;7.13;4.45;;;27.60;54.30;;;;;;6133900;28;81449;-64
2022/07/21 12:35:15;;;;;;;14.15;3.90;;;27.60;54.40;;;;;;6134366;28;80518;-64
2022/07/21 12:38:16;;;;;;;10.85;4.18;;;27.50;54.10;;;;;;6143663;28;81730;-64
2022/07/21 12:41:17;;;;;;;4.82;3.90;;;27.50;54.10;;;;;;6133881;28;80569;-64
2022/07/21 12:44:17;;;;;;;3.63;3.15;;;27.50;54.00;;;;;;6134564;28;80820;-64
2022/07/21 12:47:18;;;;;;;9.75;4.13;;;27.40;53.40;;;;;;6134385;28;81185;-64
2022/07/21 12:50:18;;;;;;;7.35;3.55;;;27.40;53.30;;;;;;6132016;28;83809;-64
2022/07/21 12:53:19;;;;;;;7.47;3.70;;;27.40;53.60;;;;;;6134136;28;80327;-72
2022/07/21 12:56:19;;;;;;;4.57;3.42;;;27.40;53.50;;;;;;6135526;28;80504;-64
2022/07/21 12:59:20;;;;;;;4.20;3.45;;;27.40;54.00;;;;;;6141285;28;80549;-63
2022/07/21 13:02:20;;;;;;;4.72;3.72;;;27.50;53.70;;;;;;6142857;28;80935;-63
2022/07/21 13:05:21;;;;;;;7.60;3.92;;;27.50;53.80;;;;;;6137153;28;81322;-62
2022/07/21 13:08:21;;;;;;;5.40;3.70;;;27.40;52.90;;;;;;6138103;28;80253;-64
2022/07/21 13:11:22;;;;;;;6.00;3.72;;;27.40;53.10;;;;;;6146708;28;80471;-63
2022/07/21 13:14:22;;;;;;;6.30;3.65;;;27.40;53.70;;;;;;6136659;28;80427;-63
2022/07/21 13:17:23;;;;;;;5.30;3.65;;;27.40;53.60;;;;;;6141632;28;80247;-63
2022/07/21 13:20:23;;;;;;;6.30;3.45;;;27.40;53.90;;;;;;6136351;28;81490;-77
2022/07/21 13:23:24;;;;;;;7.68;3.65;;;27.40;54.20;;;;;;6136080;28;81859;-63
2022/07/21 13:26:24;;;;;;;10.50;4.00;;;27.40;54.30;;;;;;6137594;28;80780;-64
2022/07/21 13:29:26;;;;;;;5.53;3.63;;;27.40;54.80;;;;;;6138109;28;80394;-66
2022/07/21 13:32:27;;;;;;;5.63;3.80;;;27.40;54.30;;;;;;6129179;28;80608;-67
2022/07/21 13:35:27;;;;;;;8.07;4.18;;;27.40;54.10;;;;;;6123363;28;85958;-73
2022/07/21 13:38:28;;;;;;;6.47;3.72;;;27.40;54.30;;;;;;6124476;28;80912;-73
2022/07/21 13:41:28;;;;;;;9.82;4.13;;;27.40;54.30;;;;;;6130572;28;80283;-68
2022/07/21 13:44:29;;;;;;;9.93;3.78;;;27.40;54.50;;;;;;6126487;28;81109;-67
2022/07/21 13:47:29;;;;;;;5.43;3.83;;;27.40;54.60;;;;;;6123447;28;80500;-67
2022/07/21 13:50:30;;;;;;;6.03;3.75;;;27.50;54.80;;;;;;6117155;28;81480;-66
2022/07/21 13:53:30;;;;;;;6.57;4.15;;;27.50;54.20;;;;;;6121657;28;82198;-67
2022/07/21 13:56:31;;;;;;;6.95;3.88;;;27.40;53.60;;;;;;6120312;28;81796;-68
2022/07/21 13:59:31;;;;;;;5.40;3.33;;;27.50;53.90;;;;;;6120798;28;80421;-66
2022/07/21 14:02:32;;;;;;;7.15;3.97;;;27.50;54.20;;;;;;6119021;28;80599;-67
2022/07/21 14:05:32;;;;;;;8.07;3.67;;;27.50;53.40;;;;;;6114073;28;80841;-68
2022/07/21 14:08:33;;;;;;;5.45;3.85;;;27.50;53.70;;;;;;6119868;28;80322;-67
2022/07/21 14:11:35;;;;;;;10.38;5.93;;;27.50;53.80;;;;;;6118618;28;83202;-67
2022/07/21 14:14:35;;;;;;;12.65;5.72;;;27.50;53.60;;;;;;6119370;28;80929;-68
2022/07/21 14:17:36;;;;;;;11.35;6.22;;;27.50;53.80;;;;;;6128416;28;80520;-68
2022/07/21 14:20:36;;;;;;;15.10;7.00;;;27.50;53.80;;;;;;6129611;28;82871;-67
2022/07/21 14:23:37;;;;;;;12.65;5.70;;;27.50;53.60;;;;;;6137259;28;80236;-68
2022/07/21 14:26:37;;;;;;;12.75;5.65;;;27.50;53.50;;;;;;6125173;28;87322;-68
2022/07/21 14:29:38;;;;;;;10.48;5.63;;;27.50;53.60;;;;;;6115750;28;80713;-68
2022/07/21 14:32:38;;;;;;;13.10;4.57;;;27.50;53.70;;;;;;6124262;28;81147;-68
2022/07/21 14:35:39;;;;;;;8.45;4.47;;;27.50;53.30;;;;;;6136874;28;82002;-70
2022/07/21 14:38:39;;;;;;;10.80;4.43;;;27.50;53.80;;;;;;6135758;28;80384;-68
2022/07/21 14:41:40;;;;;;;8.40;4.38;;;27.50;54.20;;;;;;6131449;28;80767;-70
2022/07/21 14:44:40;;;;;;;6.40;4.30;;;27.50;54.30;;;;;;6129038;28;80782;-71
2022/07/21 14:47:41;;;;;;;9.18;4.72;;;27.60;54.60;;;;;;6135684;28;81574;-65
2022/07/21 14:50:41;;;;;;;10.95;4.25;;;27.60;54.80;;;;;;6135770;28;80470;-66
2022/07/21 14:53:43;;;;;;;6.18;3.50;;;27.60;54.50;;;;;;6144409;28;81126;-66
2022/07/21 14:56:45;;;;;;;9.88;4.00;;;27.60;54.20;;;;;;6135378;28;83401;-66
2022/07/21 14:59:46;;;;;;;8.40;4.07;;;27.60;54.70;;;;;;6137036;28;80524;-65
2022/07/21 15:02:46;;;;;;;4.82;3.50;;;27.60;54.40;;;;;;6136297;28;80483;-64
2022/07/21 15:05:47;;;;;;;7.13;4.03;;;27.60;54.20;;;;;;6136677;28;80564;-63
2022/07/21 15:08:47;;;;;;;9.90;3.85;;;27.60;53.40;;;;;;6138230;28;80337;-62
2022/07/21 15:11:48;;;;;;;5.50;3.17;;;27.60;52.70;;;;;;6134318;28;82014;-65
2022/07/21 15:14:48;;;;;;;7.38;4.03;;;27.60;53.90;;;;;;6136743;28;80330;-66
2022/07/21 15:17:49;;;;;;;6.53;4.20;;;27.70;53.90;;;;;;6138477;28;80258;-65
2022/07/21 15:20:49;;;;;;;6.15;3.88;;;27.60;53.50;;;;;;6136791;28;80648;-66
2022/07/21 15:23:50;;;;;;;6.57;3.80;;;27.60;53.60;;;;;;6140715;28;81668;-65
2022/07/21 15:26:50;;;;;;;5.88;2.95;;;27.60;54.10;;;;;;6138797;28;81763;-65
2022/07/21 15:29:51;;;;;;;7.32;3.33;;;27.60;54.00;;;;;;6137244;28;79999;-65
2022/07/21 15:32:51;;;;;;;6.60;3.42;;;27.60;54.10;;;;;;6136204;28;80783;-66
2022/07/21 15:35:53;;;;;;;14.82;3.22;;;27.60;54.10;;;;;;6134985;28;82017;-65